sensor_id;sensor_type;location;lat;lon;timestamp;pressure;altitude;pressure_sealevel;temperature;humidity
61337;BME280;47212;41.326;2.104;2022-08-19T00:03:40;101472.25;;;21.51;69.20
61337;BME280;47212;41.326;2.104;2022-08-19T00:08:57;101476.78;;;21.47;69.24
61337;BME280;47212;41.326;2.104;2022-08-19T00:14:06;101472.38;;;21.46;69.41
61337;BME280;47212;41.326;2.104;2022-08-19T00:19:28;101466.34;;;21.44;70.05
61337;BME280;47212;41.326;2.104;2022-08-19T00:24:31;101460.31;;;21.42;69.64
61337;BME280;47212;41.326;2.104;2022-08-19T00:29:44;101461.44;;;21.41;69.51
61337;BME280;47212;41.326;2.104;2022-08-19T00:35:12;101459.81;;;21.40;69.50
61337;BME280;47212;41.326;2.104;2022-08-19T00:40:17;101456.53;;;21.38;69.36
61337;BME280;47212;41.326;2.104;2022-08-19T00:45:35;101449.69;;;21.36;69.40
61337;BME280;47212;41.326;2.104;2022-08-19T00:50:40;101440.06;;;21.33;69.67
61337;BME280;47212;41.326;2.104;2022-08-19T00:55:58;101443.47;;;21.30;69.73
61337;BME280;47212;41.326;2.104;2022-08-19T01:01:04;101440.50;;;21.26;69.26
61337;BME280;47212;41.326;2.104;2022-08-19T01:06:17;101435.88;;;21.22;69.70
61337;BME280;47212;41.326;2.104;2022-08-19T01:11:34;101439.78;;;21.21;70.25
61337;BME280;47212;41.326;2.104;2022-08-19T01:16:52;101432.13;;;21.18;69.69
61337;BME280;47212;41.326;2.104;2022-08-19T01:22:51;101431.63;;;21.16;69.95
61337;BME280;47212;41.326;2.104;2022-08-19T01:28:25;101435.53;;;21.15;70.16
61337;BME280;47212;41.326;2.104;2022-08-19T01:33:38;101431.75;;;21.11;69.70
61337;BME280;47212;41.326;2.104;2022-08-19T01:38:50;101429.13;;;21.06;70.34
61337;BME280;47212;41.326;2.104;2022-08-19T01:43:56;101428.94;;;21.02;70.09
61337;BME280;47212;41.326;2.104;2022-08-19T01:49:24;101426.94;;;20.94;70.42
61337;BME280;47212;41.326;2.104;2022-08-19T01:54:31;101445.09;;;20.86;70.37
61337;BME280;47212;41.326;2.104;2022-08-19T01:59:37;101454.53;;;20.85;70.52
61337;BME280;47212;41.326;2.104;2022-08-19T02:04:54;101455.47;;;20.81;70.31
61337;BME280;47212;41.326;2.104;2022-08-19T02:09:57;101448.91;;;20.77;70.29
61337;BME280;47212;41.326;2.104;2022-08-19T02:15:21;101433.25;;;20.72;69.88
61337;BME280;47212;41.326;2.104;2022-08-19T02:20:27;101436.97;;;20.67;70.23
61337;BME280;47212;41.326;2.104;2022-08-19T02:25:35;101426.72;;;20.68;70.43
61337;BME280;47212;41.326;2.104;2022-08-19T02:30:44;101423.44;;;20.66;70.07
61337;BME280;47212;41.326;2.104;2022-08-19T02:35:55;101431.03;;;20.60;70.05
61337;BME280;47212;41.326;2.104;2022-08-19T02:41:03;101444.38;;;20.58;70.44
61337;BME280;47212;41.326;2.104;2022-08-19T02:46:23;101445.81;;;20.56;70.86
61337;BME280;47212;41.326;2.104;2022-08-19T02:51:39;101444.50;;;20.53;71.12
61337;BME280;47212;41.326;2.104;2022-08-19T02:56:47;101458.13;;;20.50;70.10
61337;BME280;47212;41.326;2.104;2022-08-19T03:01:54;101460.38;;;20.48;70.18
61337;BME280;47212;41.326;2.104;2022-08-19T03:06:57;101450.44;;;20.47;69.65
61337;BME280;47212;41.326;2.104;2022-08-19T03:12:11;101460.19;;;20.44;69.38
61337;BME280;47212;41.326;2.104;2022-08-19T03:17:13;101458.56;;;20.43;69.53
61337;BME280;47212;41.326;2.104;2022-08-19T03:22:15;101461.13;;;20.40;69.72
61337;BME280;47212;41.326;2.104;2022-08-19T03:27:17;101467.75;;;20.39;69.33
61337;BME280;47212;41.326;2.104;2022-08-19T03:32:22;101475.84;;;20.35;69.61
61337;BME280;47212;41.326;2.104;2022-08-19T03:37:34;101470.63;;;20.33;69.27
61337;BME280;47212;41.326;2.104;2022-08-19T03:42:40;101475.66;;;20.31;69.09
61337;BME280;47212;41.326;2.104;2022-08-19T03:48:00;101464.91;;;20.30;68.71
61337;BME280;47212;41.326;2.104;2022-08-19T03:53:02;101489.47;;;20.31;68.49
61337;BME280;47212;41.326;2.104;2022-08-19T03:58:04;101482.81;;;20.32;68.15
61337;BME280;47212;41.326;2.104;2022-08-19T04:03:19;101470.13;;;20.31;67.90
61337;BME280;47212;41.326;2.104;2022-08-19T04:08:21;101476.78;;;20.30;67.66
61337;BME280;47212;41.326;2.104;2022-08-19T04:13:25;101491.72;;;20.29;68.01
61337;BME280;47212;41.326;2.104;2022-08-19T04:18:39;101495.81;;;20.32;67.52
61337;BME280;47212;41.326;2.104;2022-08-19T04:23:42;101491.13;;;20.32;66.95
61337;BME280;47212;41.326;2.104;2022-08-19T04:28:50;101480.69;;;20.29;66.64
61337;BME280;47212;41.326;2.104;2022-08-19T04:33:58;101479.84;;;20.29;66.17
61337;BME280;47212;41.326;2.104;2022-08-19T04:39:05;101489.47;;;20.31;66.06
61337;BME280;47212;41.326;2.104;2022-08-19T04:44:08;101495.50;;;20.33;66.20
61337;BME280;47212;41.326;2.104;2022-08-19T04:49:11;101506.25;;;20.35;66.08
61337;BME280;47212;41.326;2.104;2022-08-19T04:54:17;101512.00;;;20.39;65.65
61337;BME280;47212;41.326;2.104;2022-08-19T04:59:39;101524.09;;;20.43;65.46
61337;BME280;47212;41.326;2.104;2022-08-19T05:04:58;101530.13;;;20.45;64.26
61337;BME280;47212;41.326;2.104;2022-08-19T05:10:07;101521.03;;;20.44;64.79
61337;BME280;47212;41.326;2.104;2022-08-19T05:15:22;101534.03;;;20.44;65.01
61337;BME280;47212;41.326;2.104;2022-08-19T05:20:24;101543.97;;;20.45;64.65
61337;BME280;47212;41.326;2.104;2022-08-19T05:25:44;101566.09;;;20.45;64.70
61337;BME280;47212;41.326;2.104;2022-08-19T05:30:47;101566.09;;;20.45;64.73
61337;BME280;47212;41.326;2.104;2022-08-19T05:35:52;101573.88;;;20.43;64.92
61337;BME280;47212;41.326;2.104;2022-08-19T05:40:54;101580.22;;;20.43;64.86
61337;BME280;47212;41.326;2.104;2022-08-19T05:45:56;101591.81;;;20.45;64.97
61337;BME280;47212;41.326;2.104;2022-08-19T05:51:03;101586.97;;;20.51;64.62
61337;BME280;47212;41.326;2.104;2022-08-19T05:56:09;101595.16;;;20.56;64.64
61337;BME280;47212;41.326;2.104;2022-08-19T06:01:16;101599.47;;;20.62;64.58
61337;BME280;47212;41.326;2.104;2022-08-19T06:06:21;101596.16;;;20.74;64.15
61337;BME280;47212;41.326;2.104;2022-08-19T06:16:42;101603.22;;;20.93;63.45
61337;BME280;47212;41.326;2.104;2022-08-19T06:21:49;101600.84;;;21.01;63.33
61337;BME280;47212;41.326;2.104;2022-08-19T06:26:53;101595.09;;;21.11;62.91
61337;BME280;47212;41.326;2.104;2022-08-19T06:32:02;101597.09;;;21.19;62.21
61337;BME280;47212;41.326;2.104;2022-08-19T06:37:08;101602.44;;;21.29;61.99
61337;BME280;47212;41.326;2.104;2022-08-19T06:42:12;101600.84;;;21.37;61.32
61337;BME280;47212;41.326;2.104;2022-08-19T06:47:17;101614.25;;;21.43;60.90
61337;BME280;47212;41.326;2.104;2022-08-19T06:52:38;101621.06;;;21.59;60.75
61337;BME280;47212;41.326;2.104;2022-08-19T07:11:07;101619.28;;;22.87;57.39
61337;BME280;47212;41.326;2.104;2022-08-19T07:16:14;101626.16;;;23.25;56.53
61337;BME280;47212;41.326;2.104;2022-08-19T07:21:24;101631.63;;;23.56;55.96
61337;BME280;47212;41.326;2.104;2022-08-19T07:27:19;101629.44;;;23.87;55.32
61337;BME280;47212;41.326;2.104;2022-08-19T07:33:16;101635.56;;;24.19;53.45
61337;BME280;47212;41.326;2.104;2022-08-19T07:38:22;101634.69;;;24.44;53.75
61337;BME280;47212;41.326;2.104;2022-08-19T07:43:26;101645.53;;;24.66;52.52
61337;BME280;47212;41.326;2.104;2022-08-19T07:48:36;101651.16;;;24.87;52.83
61337;BME280;47212;41.326;2.104;2022-08-19T07:54:07;101662.34;;;25.08;49.75
61337;BME280;47212;41.326;2.104;2022-08-19T08:00:00;101659.38;;;25.34;51.43
61337;BME280;47212;41.326;2.104;2022-08-19T08:05:58;101664.25;;;25.58;50.07
61337;BME280;47212;41.326;2.104;2022-08-19T08:11:19;101652.84;;;25.71;50.84
61337;BME280;47212;41.326;2.104;2022-08-19T08:16:37;101665.47;;;25.90;49.56
61337;BME280;47212;41.326;2.104;2022-08-19T08:21:49;101657.41;;;26.09;50.27
61337;BME280;47212;41.326;2.104;2022-08-19T08:26:51;101647.66;;;26.27;49.39
61337;BME280;47212;41.326;2.104;2022-08-19T08:31:58;101655.50;;;26.46;49.04
61337;BME280;47212;41.326;2.104;2022-08-19T08:37:01;101655.28;;;26.63;49.17
61337;BME280;47212;41.326;2.104;2022-08-19T08:42:17;101638.97;;;26.78;46.27
61337;BME280;47212;41.326;2.104;2022-08-19T08:47:34;101647.13;;;26.95;47.57
61337;BME280;47212;41.326;2.104;2022-08-19T08:52:50;101640.38;;;27.08;47.13
61337;BME280;47212;41.326;2.104;2022-08-19T08:58:04;101626.13;;;27.25;47.81
61337;BME280;47212;41.326;2.104;2022-08-19T09:03:19;101630.59;;;27.42;45.98
61337;BME280;47212;41.326;2.104;2022-08-19T09:19:51;101639.38;;;27.97;45.05
61337;BME280;47212;41.326;2.104;2022-08-19T09:24:54;101641.19;;;28.05;46.20
61337;BME280;47212;41.326;2.104;2022-08-19T09:29:57;101635.13;;;28.18;46.18
61337;BME280;47212;41.326;2.104;2022-08-19T09:35:00;101632.81;;;28.36;45.62
61337;BME280;47212;41.326;2.104;2022-08-19T09:40:10;101634.78;;;28.51;45.56
61337;BME280;47212;41.326;2.104;2022-08-19T09:45:18;101640.78;;;28.66;44.59
61337;BME280;47212;41.326;2.104;2022-08-19T09:50:24;101643.81;;;28.76;45.14
61337;BME280;47212;41.326;2.104;2022-08-19T09:55:27;101642.38;;;28.82;44.53
61337;BME280;47212;41.326;2.104;2022-08-19T10:00:33;101642.28;;;28.95;43.57
61337;BME280;47212;41.326;2.104;2022-08-19T10:05:36;101642.97;;;29.07;43.16
61337;BME280;47212;41.326;2.104;2022-08-19T10:10:50;101639.56;;;29.17;41.60
61337;BME280;47212;41.326;2.104;2022-08-19T10:15:54;101640.25;;;29.30;41.60
61337;BME280;47212;41.326;2.104;2022-08-19T10:21:10;101626.44;;;29.41;38.64
61337;BME280;47212;41.326;2.104;2022-08-19T10:26:21;101628.72;;;29.51;39.22
61337;BME280;47212;41.326;2.104;2022-08-19T10:31:29;101622.19;;;29.66;39.12
61337;BME280;47212;41.326;2.104;2022-08-19T10:37:03;101622.78;;;29.75;36.23
61337;BME280;47212;41.326;2.104;2022-08-19T10:42:15;101611.81;;;29.90;38.94
61337;BME280;47212;41.326;2.104;2022-08-19T10:47:19;101598.72;;;29.97;37.95
61337;BME280;47212;41.326;2.104;2022-08-19T10:52:26;101610.53;;;30.06;38.11
61337;BME280;47212;41.326;2.104;2022-08-19T10:57:39;101597.88;;;30.16;38.17
61337;BME280;47212;41.326;2.104;2022-08-19T11:03:03;101608.84;;;30.25;38.08
61337;BME280;47212;41.326;2.104;2022-08-19T11:08:04;101602.09;;;30.29;37.98
61337;BME280;47212;41.326;2.104;2022-08-19T11:13:28;101601.28;;;30.29;37.61
61337;BME280;47212;41.326;2.104;2022-08-19T11:18:37;101591.00;;;30.36;37.47
61337;BME280;47212;41.326;2.104;2022-08-19T11:23:40;101590.75;;;30.22;37.66
61337;BME280;47212;41.326;2.104;2022-08-19T11:28:44;101584.19;;;30.15;38.45
61337;BME280;47212;41.326;2.104;2022-08-19T11:33:47;101593.00;;;30.13;37.95
61337;BME280;47212;41.326;2.104;2022-08-19T11:38:52;101588.94;;;30.10;39.10
61337;BME280;47212;41.326;2.104;2022-08-19T11:43:55;101594.41;;;29.80;41.67
61337;BME280;47212;41.326;2.104;2022-08-19T11:48:58;101588.00;;;29.22;42.01
61337;BME280;47212;41.326;2.104;2022-08-19T11:54:01;101597.00;;;28.77;42.69
61337;BME280;47212;41.326;2.104;2022-08-19T11:59:03;101601.28;;;28.39;43.00
61337;BME280;47212;41.326;2.104;2022-08-19T12:04:06;101596.13;;;28.10;42.81
61337;BME280;47212;41.326;2.104;2022-08-19T12:09:09;101600.19;;;27.97;43.55
61337;BME280;47212;41.326;2.104;2022-08-19T12:14:13;101609.41;;;27.97;43.04
61337;BME280;47212;41.326;2.104;2022-08-19T12:19:19;101605.50;;;27.86;43.91
61337;BME280;47212;41.326;2.104;2022-08-19T12:24:23;101600.97;;;27.81;43.93
61337;BME280;47212;41.326;2.104;2022-08-19T12:29:26;101598.69;;;27.71;43.73
61337;BME280;47212;41.326;2.104;2022-08-19T12:34:33;101598.69;;;27.71;43.66
61337;BME280;47212;41.326;2.104;2022-08-19T12:39:40;101594.94;;;27.79;43.95
61337;BME280;47212;41.326;2.104;2022-08-19T12:44:43;101589.72;;;27.94;44.26
61337;BME280;47212;41.326;2.104;2022-08-19T12:49:49;101595.94;;;28.03;43.94
61337;BME280;47212;41.326;2.104;2022-08-19T12:54:57;101597.56;;;28.04;43.68
61337;BME280;47212;41.326;2.104;2022-08-19T13:00:48;101590.81;;;28.05;44.78
61337;BME280;47212;41.326;2.104;2022-08-19T13:06:39;101596.59;;;28.12;45.80
61337;BME280;47212;41.326;2.104;2022-08-19T13:11:42;101602.81;;;28.05;45.60
61337;BME280;47212;41.326;2.104;2022-08-19T13:16:45;101592.69;;;28.01;46.36
61337;BME280;47212;41.326;2.104;2022-08-19T13:21:52;101597.66;;;27.91;46.72
61337;BME280;47212;41.326;2.104;2022-08-19T13:27:01;101590.88;;;27.77;47.14
61337;BME280;47212;41.326;2.104;2022-08-19T13:32:08;101587.03;;;27.69;46.92
61337;BME280;47212;41.326;2.104;2022-08-19T13:37:30;101579.50;;;27.57;47.89
61337;BME280;47212;41.326;2.104;2022-08-19T13:42:46;101587.69;;;27.50;48.45
61337;BME280;47212;41.326;2.104;2022-08-19T13:47:50;101586.97;;;27.53;48.79
61337;BME280;47212;41.326;2.104;2022-08-19T13:53:01;101574.78;;;27.46;49.34
61337;BME280;47212;41.326;2.104;2022-08-19T13:58:04;101577.84;;;27.41;49.57
61337;BME280;47212;41.326;2.104;2022-08-19T14:03:06;101578.75;;;27.45;49.53
61337;BME280;47212;41.326;2.104;2022-08-19T14:08:10;101568.28;;;27.42;48.90
61337;BME280;47212;41.326;2.104;2022-08-19T14:13:19;101576.56;;;27.38;48.63
61337;BME280;47212;41.326;2.104;2022-08-19T14:18:21;101565.13;;;27.43;48.47
61337;BME280;47212;41.326;2.104;2022-08-19T14:23:26;101564.31;;;27.43;47.87
61337;BME280;47212;41.326;2.104;2022-08-19T14:28:28;101566.13;;;27.51;47.35
61337;BME280;47212;41.326;2.104;2022-08-19T14:33:32;101568.56;;;27.52;47.21
61337;BME280;47212;41.326;2.104;2022-08-19T14:38:34;101567.84;;;27.55;47.62
61337;BME280;47212;41.326;2.104;2022-08-19T14:43:36;101560.53;;;27.51;47.98
61337;BME280;47212;41.326;2.104;2022-08-19T14:48:39;101557.19;;;27.45;45.54
61337;BME280;47212;41.326;2.104;2022-08-19T14:54:30;101547.53;;;27.43;45.27
61337;BME280;47212;41.326;2.104;2022-08-19T14:59:34;101542.84;;;27.47;46.89
61337;BME280;47212;41.326;2.104;2022-08-19T15:04:37;101551.25;;;27.47;47.05
61337;BME280;47212;41.326;2.104;2022-08-19T15:09:40;101539.59;;;27.45;47.38
61337;BME280;47212;41.326;2.104;2022-08-19T15:14:43;101539.16;;;27.43;47.94
61337;BME280;47212;41.326;2.104;2022-08-19T15:19:48;101538.34;;;27.42;48.21
61337;BME280;47212;41.326;2.104;2022-08-19T15:24:50;101522.28;;;27.39;49.23
61337;BME280;47212;41.326;2.104;2022-08-19T15:29:52;101521.19;;;27.44;49.63
61337;BME280;47212;41.326;2.104;2022-08-19T15:35:29;101519.56;;;27.43;50.00
61337;BME280;47212;41.326;2.104;2022-08-19T15:40:31;101512.81;;;27.44;50.43
61337;BME280;47212;41.326;2.104;2022-08-19T15:45:33;101503.41;;;27.36;50.74
61337;BME280;47212;41.326;2.104;2022-08-19T15:50:35;101501.91;;;27.39;51.03
61337;BME280;47212;41.326;2.104;2022-08-19T15:55:42;101507.69;;;27.46;52.26
61337;BME280;47212;41.326;2.104;2022-08-19T16:00:52;101504.44;;;27.44;51.19
61337;BME280;47212;41.326;2.104;2022-08-19T16:06:25;101498.94;;;27.47;51.68
61337;BME280;47212;41.326;2.104;2022-08-19T16:11:39;101504.63;;;27.51;51.25
61337;BME280;47212;41.326;2.104;2022-08-19T16:16:46;101505.34;;;27.48;49.85
61337;BME280;47212;41.326;2.104;2022-08-19T16:21:51;101505.44;;;27.51;48.72
61337;BME280;47212;41.326;2.104;2022-08-19T16:26:54;101503.91;;;27.54;48.11
61337;BME280;47212;41.326;2.104;2022-08-19T16:31:57;101502.38;;;27.56;47.71
61337;BME280;47212;41.326;2.104;2022-08-19T16:37:00;101500.75;;;27.55;48.00
61337;BME280;47212;41.326;2.104;2022-08-19T16:42:02;101497.59;;;27.57;47.29
61337;BME280;47212;41.326;2.104;2022-08-19T16:47:08;101501.47;;;27.52;47.19
61337;BME280;47212;41.326;2.104;2022-08-19T16:52:10;101499.03;;;27.51;46.29
61337;BME280;47212;41.326;2.104;2022-08-19T16:57:15;101494.88;;;27.45;46.60
61337;BME280;47212;41.326;2.104;2022-08-19T17:02:18;101492.34;;;27.40;46.53
61337;BME280;47212;41.326;2.104;2022-08-19T17:07:28;101495.50;;;27.38;46.95
61337;BME280;47212;41.326;2.104;2022-08-19T17:12:44;101500.28;;;27.38;47.00
61337;BME280;47212;41.326;2.104;2022-08-19T17:17:48;101499.38;;;27.34;47.86
61337;BME280;47212;41.326;2.104;2022-08-19T17:22:53;101498.44;;;27.29;48.10
61337;BME280;47212;41.326;2.104;2022-08-19T17:27:57;101503.13;;;27.25;48.34
61337;BME280;47212;41.326;2.104;2022-08-19T17:33:50;101503.84;;;27.22;49.21
61337;BME280;47212;41.326;2.104;2022-08-19T17:38:57;101503.19;;;27.13;48.89
61337;BME280;47212;41.326;2.104;2022-08-19T17:44:00;101496.34;;;27.11;49.58
61337;BME280;47212;41.326;2.104;2022-08-19T17:49:02;101506.25;;;27.08;49.43
61337;BME280;47212;41.326;2.104;2022-08-19T17:54:09;101509.03;;;27.08;50.08
61337;BME280;47212;41.326;2.104;2022-08-19T17:59:12;101518.13;;;27.05;50.19
61337;BME280;47212;41.326;2.104;2022-08-19T18:04:16;101527.59;;;27.01;50.63
61337;BME280;47212;41.326;2.104;2022-08-19T18:09:21;101533.38;;;26.95;50.74
61337;BME280;47212;41.326;2.104;2022-08-19T18:14:27;101544.47;;;26.92;50.76
61337;BME280;47212;41.326;2.104;2022-08-19T18:19:36;101552.38;;;26.90;51.08
61337;BME280;47212;41.326;2.104;2022-08-19T18:25:21;101558.66;;;26.87;51.76
61337;BME280;47212;41.326;2.104;2022-08-19T18:30:27;101568.91;;;26.83;51.78
61337;BME280;47212;41.326;2.104;2022-08-19T18:35:33;101578.34;;;26.78;51.83
61337;BME280;47212;41.326;2.104;2022-08-19T18:40:39;101579.41;;;26.74;52.33
61337;BME280;47212;41.326;2.104;2022-08-19T18:46:00;101580.34;;;26.65;52.59
61337;BME280;47212;41.326;2.104;2022-08-19T18:51:21;101590.13;;;26.59;53.08
61337;BME280;47212;41.326;2.104;2022-08-19T18:56:30;101595.25;;;26.57;53.34
61337;BME280;47212;41.326;2.104;2022-08-19T19:01:39;101604.78;;;26.56;53.82
61337;BME280;47212;41.326;2.104;2022-08-19T19:06:47;101610.72;;;26.55;54.27
61337;BME280;47212;41.326;2.104;2022-08-19T19:11:58;101616.66;;;26.53;54.54
61337;BME280;47212;41.326;2.104;2022-08-19T19:17:07;101614.22;;;26.52;54.60
61337;BME280;47212;41.326;2.104;2022-08-19T19:22:18;101628.53;;;26.50;54.63
61337;BME280;47212;41.326;2.104;2022-08-19T19:27:22;101624.91;;;26.50;54.82
61337;BME280;47212;41.326;2.104;2022-08-19T19:32:27;101643.41;;;26.54;54.73
61337;BME280;47212;41.326;2.104;2022-08-19T19:37:39;101645.97;;;26.59;55.03
61337;BME280;47212;41.326;2.104;2022-08-19T19:42:44;101654.47;;;26.63;55.28
61337;BME280;47212;41.326;2.104;2022-08-19T19:47:49;101663.31;;;26.65;55.66
61337;BME280;47212;41.326;2.104;2022-08-19T19:52:51;101668.53;;;26.66;55.77
61337;BME280;47212;41.326;2.104;2022-08-19T19:57:59;101669.69;;;26.65;56.43
61337;BME280;47212;41.326;2.104;2022-08-19T20:03:01;101673.53;;;26.61;56.47
61337;BME280;47212;41.326;2.104;2022-08-19T20:08:05;101684.25;;;26.59;56.94
61337;BME280;47212;41.326;2.104;2022-08-19T20:13:27;101691.81;;;26.58;56.88
61337;BME280;47212;41.326;2.104;2022-08-19T20:18:31;101694.47;;;26.55;57.01
61337;BME280;47212;41.326;2.104;2022-08-19T20:23:45;101697.28;;;26.55;56.95
61337;BME280;47212;41.326;2.104;2022-08-19T20:29:07;101696.47;;;26.54;56.89
61337;BME280;47212;41.326;2.104;2022-08-19T20:34:30;101709.84;;;26.49;57.13
61337;BME280;47212;41.326;2.104;2022-08-19T20:39:44;101711.22;;;26.43;57.26
61337;BME280;47212;41.326;2.104;2022-08-19T20:44:49;101701.78;;;26.35;57.46
61337;BME280;47212;41.326;2.104;2022-08-19T20:49:57;101705.94;;;26.29;57.76
61337;BME280;47212;41.326;2.104;2022-08-19T20:54:59;101707.31;;;26.23;57.65
61337;BME280;47212;41.326;2.104;2022-08-19T21:00:06;101700.31;;;26.17;57.79
61337;BME280;47212;41.326;2.104;2022-08-19T21:05:14;101706.59;;;26.14;57.91
61337;BME280;47212;41.326;2.104;2022-08-19T21:10:16;101706.13;;;26.12;57.84
61337;BME280;47212;41.326;2.104;2022-08-19T21:15:18;101708.78;;;26.08;57.93
61337;BME280;47212;41.326;2.104;2022-08-19T21:20:23;101709.13;;;26.07;58.04
61337;BME280;47212;41.326;2.104;2022-08-19T21:25:26;101707.84;;;26.04;57.98
61337;BME280;47212;41.326;2.104;2022-08-19T21:30:32;101710.97;;;26.02;58.19
61337;BME280;47212;41.326;2.104;2022-08-19T21:35:37;101707.69;;;26.00;57.98
61337;BME280;47212;41.326;2.104;2022-08-19T21:40:39;101718.72;;;25.97;58.18
61337;BME280;47212;41.326;2.104;2022-08-19T21:46:07;101719.75;;;25.92;58.80
61337;BME280;47212;41.326;2.104;2022-08-19T21:51:09;101720.91;;;25.91;58.49
61337;BME280;47212;41.326;2.104;2022-08-19T21:56:12;101726.00;;;25.89;58.15
61337;BME280;47212;41.326;2.104;2022-08-19T22:01:14;101732.28;;;25.86;58.00
61337;BME280;47212;41.326;2.104;2022-08-19T22:06:16;101732.97;;;25.83;57.95
61337;BME280;47212;41.326;2.104;2022-08-19T22:11:21;101740.50;;;25.83;58.16
61337;BME280;47212;41.326;2.104;2022-08-19T22:16:24;101743.63;;;25.81;58.01
61337;BME280;47212;41.326;2.104;2022-08-19T22:21:26;101733.16;;;25.78;58.15
61337;BME280;47212;41.326;2.104;2022-08-19T22:26:41;101735.47;;;25.76;57.96
61337;BME280;47212;41.326;2.104;2022-08-19T22:31:52;101730.47;;;25.69;57.95
61337;BME280;47212;41.326;2.104;2022-08-19T22:36:58;101736.22;;;25.64;57.84
61337;BME280;47212;41.326;2.104;2022-08-19T22:42:01;101733.63;;;25.59;58.37
61337;BME280;47212;41.326;2.104;2022-08-19T22:47:07;101726.97;;;25.52;58.86
61337;BME280;47212;41.326;2.104;2022-08-19T22:52:10;101723.56;;;25.46;59.06
61337;BME280;47212;41.326;2.104;2022-08-19T22:57:25;101721.78;;;25.42;59.54
61337;BME280;47212;41.326;2.104;2022-08-19T23:02:37;101728.03;;;25.38;59.52
61337;BME280;47212;41.326;2.104;2022-08-19T23:07:54;101725.47;;;25.33;59.78
61337;BME280;47212;41.326;2.104;2022-08-19T23:13:05;101725.66;;;25.28;59.75
61337;BME280;47212;41.326;2.104;2022-08-19T23:18:12;101717.97;;;25.25;60.14
61337;BME280;47212;41.326;2.104;2022-08-19T23:23:15;101720.97;;;25.20;60.56
61337;BME280;47212;41.326;2.104;2022-08-19T23:28:21;101708.03;;;25.16;60.42
61337;BME280;47212;41.326;2.104;2022-08-19T23:33:41;101703.78;;;25.09;61.83
61337;BME280;47212;41.326;2.104;2022-08-19T23:38:52;101699.72;;;25.07;60.57
61337;BME280;47212;41.326;2.104;2022-08-19T23:43:55;101705.97;;;25.04;60.85
61337;BME280;47212;41.326;2.104;2022-08-19T23:48:57;101699.75;;;24.98;60.79
61337;BME280;47212;41.326;2.104;2022-08-19T23:53:59;101686.81;;;24.94;61.18
61337;BME280;47212;41.326;2.104;2022-08-19T23:59:01;101684.22;;;24.89;61.08
